Time;durP1;ratioP1;P1;durP2;ratioP2;P2;SDS_P1;SDS_P2;PMS_P1;PMS_P2;Temp;Humidity;BMP_temperature;BMP_pressure;BME280_temperature;BME280_humidity;BME280_pressure;Samples;Min_cycle;Max_cycle;Signal;HPM_P1;HPM_P2
2021/10/19 00:01:01;;;;;;;15.27;9.18;;;8.70;99.90;;;;;;5054860;28;20080;-78
2021/10/19 00:03:29;;;;;;;12.63;8.32;;;8.70;99.90;;;;;;5054447;28;20140;-77
2021/10/19 00:05:56;;;;;;;12.75;7.80;;;8.70;99.90;;;;;;5054656;28;20103;-80
2021/10/19 00:08:23;;;;;;;11.43;7.30;;;8.60;99.90;;;;;;5054347;28;20135;-78
2021/10/19 00:10:51;;;;;;;13.20;7.82;;;8.60;99.90;;;;;;5054561;28;20107;-79
2021/10/19 00:13:19;;;;;;;12.68;7.88;;;8.50;99.90;;;;;;5054485;28;20399;-80
2021/10/19 00:15:46;;;;;;;11.45;8.07;;;8.50;99.90;;;;;;5054227;28;20049;-77
2021/10/19 00:18:13;;;;;;;11.80;7.85;;;8.50;99.90;;;;;;5054243;28;20049;-80
2021/10/19 00:20:40;;;;;;;12.70;7.60;;;8.50;99.90;;;;;;5053964;28;20167;-78
2021/10/19 00:23:07;;;;;;;10.85;7.10;;;8.50;99.90;;;;;;5054259;28;20084;-78
2021/10/19 00:25:34;;;;;;;10.75;7.25;;;8.40;99.90;;;;;;5053952;28;20140;-78
2021/10/19 00:28:04;;;;;;;11.55;7.00;;;8.40;99.90;;;;;;5054287;28;20140;-79
2021/10/19 00:30:31;;;;;;;11.55;7.03;;;8.40;99.90;;;;;;5053947;28;20076;-77
2021/10/19 00:32:58;;;;;;;11.18;7.45;;;8.40;99.90;;;;;;5054064;28;20129;-79
2021/10/19 00:35:27;;;;;;;11.43;7.45;;;8.40;99.90;;;;;;5053795;28;20144;-79
2021/10/19 00:37:54;;;;;;;11.93;7.45;;;8.40;99.90;;;;;;5054136;28;20132;-78
2021/10/19 00:40:22;;;;;;;11.13;7.55;;;8.40;99.90;;;;;;5053550;28;20083;-78
2021/10/19 00:42:49;;;;;;;11.02;7.50;;;8.40;99.90;;;;;;5054008;28;20665;-79
2021/10/19 00:45:17;;;;;;;12.43;7.78;;;8.40;99.90;;;;;;5053806;28;20164;-80
2021/10/19 00:47:49;;;;;;;11.90;8.23;;;8.40;99.90;;;;;;5052803;28;20139;-78
2021/10/19 00:50:18;;;;;;;10.57;7.00;;;8.40;99.90;;;;;;5053426;28;20132;-79
2021/10/19 00:52:46;;;;;;;12.98;7.50;;;8.40;99.90;;;;;;5053838;28;20124;-78
2021/10/19 00:55:13;;;;;;;10.48;6.45;;;8.40;99.90;;;;;;5053219;28;20470;-76
2021/10/19 00:57:40;;;;;;;9.23;6.63;;;8.40;99.90;;;;;;5053250;28;20557;-77
2021/10/19 01:00:11;;;;;;;11.15;7.25;;;8.40;99.90;;;;;;5053344;28;20124;-79
2021/10/19 01:02:43;;;;;;;11.23;7.43;;;8.50;99.90;;;;;;5053259;28;20140;-80
2021/10/19 01:05:10;;;;;;;11.45;7.50;;;8.50;99.90;;;;;;5053446;28;20060;-75
2021/10/19 01:07:37;;;;;;;11.52;7.75;;;8.50;99.90;;;;;;5053236;28;20088;-76
2021/10/19 01:10:07;;;;;;;12.13;7.68;;;8.50;99.90;;;;;;5053095;28;20085;-75
2021/10/19 01:12:36;;;;;;;11.30;7.38;;;8.50;99.90;;;;;;5053013;28;20049;-78
2021/10/19 01:15:09;;;;;;;10.68;6.95;;;8.50;99.90;;;;;;5035495;28;20483;-78
2021/10/19 01:17:43;;;;;;;11.32;7.57;;;8.50;99.90;;;;;;5053135;28;20546;-79
2021/10/19 01:20:28;;;;;;;10.45;7.18;;;8.50;99.90;;;;;;5053216;28;20136;-79
2021/10/19 01:22:58;;;;;;;11.35;7.75;;;8.60;99.90;;;;;;5053989;28;20085;-79
2021/10/19 01:25:32;;;;;;;11.43;7.30;;;8.60;99.90;;;;;;5052962;28;20151;-78
2021/10/19 01:28:02;;;;;;;10.70;6.93;;;8.50;99.90;;;;;;5052984;28;20143;-77
2021/10/19 01:30:30;;;;;;;10.75;6.70;;;8.50;99.90;;;;;;5052455;28;20127;-78
2021/10/19 01:32:58;;;;;;;10.27;6.88;;;8.50;99.90;;;;;;5051720;28;20120;-79
2021/10/19 01:35:34;;;;;;;11.32;7.35;;;8.60;99.90;;;;;;5052702;28;20052;-79
2021/10/19 01:38:02;;;;;;;10.55;7.28;;;8.60;99.90;;;;;;5052757;28;20132;-79
2021/10/19 01:40:29;;;;;;;11.35;7.60;;;8.60;99.90;;;;;;5052199;28;20140;-78
2021/10/19 01:42:56;;;;;;;11.93;7.28;;;8.60;99.90;;;;;;5052750;28;20123;-79
2021/10/19 01:45:23;;;;;;;11.10;7.53;;;8.60;99.90;;;;;;5052622;28;20136;-77
2021/10/19 01:47:50;;;;;;;11.35;7.47;;;8.60;99.90;;;;;;5052719;28;20128;-79
2021/10/19 01:50:19;;;;;;;10.65;6.80;;;8.60;99.90;;;;;;5052259;28;20458;-79
2021/10/19 01:52:48;;;;;;;11.18;7.07;;;8.60;99.90;;;;;;5051494;28;20721;-78
2021/10/19 01:55:15;;;;;;;11.05;7.28;;;8.60;99.90;;;;;;5052196;28;20124;-78
2021/10/19 01:57:42;;;;;;;9.23;6.40;;;8.60;99.90;;;;;;5052224;28;20125;-79
2021/10/19 02:00:12;;;;;;;11.73;7.72;;;8.70;99.90;;;;;;5052143;28;20091;-80
2021/10/19 02:02:39;;;;;;;11.60;7.40;;;8.70;99.90;;;;;;5052342;28;20191;-80
2021/10/19 02:05:09;;;;;;;9.98;6.88;;;8.70;99.90;;;;;;5052166;28;20124;-80
2021/10/19 02:07:36;;;;;;;11.35;7.22;;;8.70;99.90;;;;;;5052072;28;20145;-77
2021/10/19 02:10:08;;;;;;;10.93;6.80;;;8.70;99.90;;;;;;5051937;28;20554;-79
2021/10/19 02:12:35;;;;;;;9.68;6.60;;;8.70;99.90;;;;;;5052365;28;20143;-77
2021/10/19 02:15:02;;;;;;;11.50;7.20;;;8.70;99.90;;;;;;5052143;28;20136;-76
2021/10/19 02:17:29;;;;;;;11.55;7.18;;;8.70;99.90;;;;;;5052066;28;20131;-78
2021/10/19 02:19:57;;;;;;;11.52;7.38;;;8.70;99.90;;;;;;5052161;28;20080;-76
2021/10/19 02:22:24;;;;;;;9.88;6.57;;;8.70;99.90;;;;;;5052448;28;20056;-74
2021/10/19 02:24:52;;;;;;;11.52;7.28;;;8.70;99.90;;;;;;5052426;28;20136;-76
2021/10/19 02:27:20;;;;;;;11.18;7.60;;;8.70;99.90;;;;;;5052120;28;20131;-76
2021/10/19 02:29:47;;;;;;;11.73;7.57;;;8.70;99.90;;;;;;5051942;28;20135;-78
2021/10/19 02:32:14;;;;;;;10.65;7.20;;;8.60;99.90;;;;;;5051928;28;20127;-77
2021/10/19 02:34:42;;;;;;;11.38;7.40;;;8.60;99.90;;;;;;5051554;28;20088;-78
2021/10/19 02:37:09;;;;;;;11.30;7.38;;;8.60;99.90;;;;;;5051739;28;20131;-79
2021/10/19 02:39:36;;;;;;;10.90;6.95;;;8.60;99.90;;;;;;5051516;28;20553;-75
2021/10/19 02:42:03;;;;;;;11.65;6.85;;;8.60;99.90;;;;;;5051842;28;20127;-80
2021/10/19 02:44:32;;;;;;;10.85;6.93;;;8.60;99.90;;;;;;5051729;28;20052;-77
2021/10/19 02:46:59;;;;;;;10.50;6.72;;;8.70;99.90;;;;;;5051906;28;20132;-76
2021/10/19 02:49:26;;;;;;;10.57;6.45;;;8.70;99.90;;;;;;5051772;28;20076;-79
2021/10/19 02:51:53;;;;;;;10.95;7.10;;;8.70;99.90;;;;;;5051872;28;20132;-79
2021/10/19 02:54:20;;;;;;;10.50;6.65;;;8.70;99.90;;;;;;5051488;28;20577;-77
2021/10/19 02:56:47;;;;;;;10.63;6.63;;;8.70;99.90;;;;;;5051584;28;20573;-75
2021/10/19 02:59:14;;;;;;;9.32;6.43;;;8.70;99.90;;;;;;5051361;28;20132;-79
2021/10/19 03:01:43;;;;;;;10.15;6.80;;;8.80;99.90;;;;;;5051039;28;20127;-80
2021/10/19 03:04:10;;;;;;;8.95;5.97;;;8.80;99.90;;;;;;5049188;28;20136;-78
2021/10/19 03:06:37;;;;;;;10.38;6.38;;;8.80;99.90;;;;;;5049194;28;20168;-79
2021/10/19 03:09:05;;;;;;;10.55;6.55;;;8.80;99.90;;;;;;5047194;28;20132;-79
2021/10/19 03:11:32;;;;;;;9.70;6.20;;;8.90;99.90;;;;;;5051718;28;20570;-77
2021/10/19 03:13:59;;;;;;;9.77;6.40;;;8.80;99.90;;;;;;5052405;28;20076;-76
2021/10/19 03:16:26;;;;;;;9.48;6.03;;;8.90;99.90;;;;;;5052240;28;20170;-76
2021/10/19 03:18:54;;;;;;;11.02;6.50;;;8.90;99.90;;;;;;5052672;28;20135;-78
2021/10/19 03:21:21;;;;;;;10.05;6.20;;;9.00;99.90;;;;;;5052662;28;20132;-77
2021/10/19 03:23:49;;;;;;;9.82;7.10;;;8.90;99.90;;;;;;5052903;28;20128;-80
2021/10/19 03:26:16;;;;;;;10.38;6.85;;;8.90;99.90;;;;;;5051900;28;20825;-78
2021/10/19 03:28:44;;;;;;;10.35;6.70;;;8.90;99.90;;;;;;5051603;28;20503;-78
2021/10/19 03:31:12;;;;;;;10.35;6.63;;;8.90;99.90;;;;;;5051698;28;20049;-79
2021/10/19 03:33:39;;;;;;;10.40;6.72;;;8.90;99.90;;;;;;5051970;28;20156;-78
2021/10/19 03:36:09;;;;;;;9.95;6.30;;;8.90;99.90;;;;;;5051748;28;20087;-79
2021/10/19 03:38:37;;;;;;;9.05;5.97;;;8.80;99.90;;;;;;5051711;28;20135;-79
2021/10/19 03:41:04;;;;;;;8.90;5.88;;;8.80;99.90;;;;;;5051703;28;20110;-80
2021/10/19 03:43:32;;;;;;;9.25;6.03;;;8.80;99.90;;;;;;5052065;28;20143;-79
2021/10/19 03:45:59;;;;;;;10.18;6.50;;;8.70;99.90;;;;;;5051505;28;20059;-79
2021/10/19 03:48:26;;;;;;;9.93;6.80;;;8.80;99.90;;;;;;5051305;28;20131;-79
2021/10/19 03:50:54;;;;;;;10.13;6.75;;;8.80;99.90;;;;;;5051246;28;20582;-79
2021/10/19 03:53:23;;;;;;;9.68;6.57;;;8.80;99.90;;;;;;5051631;28;20134;-78
2021/10/19 03:55:50;;;;;;;9.15;5.97;;;8.90;99.90;;;;;;5051476;28;20049;-79
2021/10/19 03:58:17;;;;;;;10.50;5.93;;;8.80;99.90;;;;;;5051593;28;20689;-79
2021/10/19 04:00:45;;;;;;;8.48;5.90;;;8.90;99.90;;;;;;5051494;28;20132;-80
2021/10/19 04:03:12;;;;;;;9.80;6.13;;;8.90;99.90;;;;;;5054669;28;20127;-78
2021/10/19 04:05:39;;;;;;;8.25;5.85;;;8.90;99.90;;;;;;5054415;28;20124;-80
2021/10/19 04:08:06;;;;;;;10.05;6.22;;;9.00;99.90;;;;;;5054293;28;20136;-77
2021/10/19 04:10:34;;;;;;;10.25;6.57;;;9.00;99.90;;;;;;5054267;28;20124;-80
2021/10/19 04:13:01;;;;;;;9.85;6.57;;;9.00;99.90;;;;;;5054660;28;20139;-80
2021/10/19 04:15:29;;;;;;;9.93;6.60;;;9.00;99.90;;;;;;5054157;28;20139;-80
2021/10/19 04:17:56;;;;;;;10.10;6.30;;;9.00;99.90;;;;;;5054487;28;20141;-77
2021/10/19 04:20:23;;;;;;;9.43;6.30;;;9.00;99.90;;;;;;5053916;28;20496;-78
2021/10/19 04:22:50;;;;;;;10.27;6.13;;;9.00;99.90;;;;;;5052582;28;20135;-78
2021/10/19 04:25:17;;;;;;;9.95;6.05;;;9.00;99.90;;;;;;5054293;28;20160;-75
2021/10/19 04:27:46;;;;;;;9.85;6.47;;;9.00;99.90;;;;;;5053853;28;20132;-78
2021/10/19 04:30:13;;;;;;;9.95;6.43;;;9.10;99.90;;;;;;5053971;28;20137;-76
2021/10/19 04:32:40;;;;;;;10.77;6.55;;;9.00;99.90;;;;;;5053971;28;20132;-77
2021/10/19 04:35:09;;;;;;;9.13;6.07;;;9.00;99.90;;;;;;5053977;28;20518;-78
2021/10/19 04:37:36;;;;;;;8.65;5.80;;;9.10;99.90;;;;;;5054037;28;20136;-78
2021/10/19 04:40:05;;;;;;;8.15;5.55;;;9.10;99.90;;;;;;5054055;28;20131;-75
2021/10/19 04:42:37;;;;;;;9.55;5.70;;;9.10;99.90;;;;;;5054047;28;20139;-76
2021/10/19 04:45:07;;;;;;;11.70;6.10;;;9.10;99.90;;;;;;5053945;28;20052;-78
2021/10/19 04:47:34;;;;;;;9.20;5.85;;;9.10;99.90;;;;;;5053926;28;20155;-79
2021/10/19 04:50:01;;;;;;;9.05;6.30;;;9.20;99.90;;;;;;5053961;28;20128;-80
2021/10/19 04:52:28;;;;;;;9.07;5.90;;;9.20;99.90;;;;;;5053803;28;20068;-78
2021/10/19 04:54:56;;;;;;;11.20;7.03;;;9.30;99.90;;;;;;5052647;28;20132;-78
2021/10/19 04:57:23;;;;;;;9.48;6.30;;;9.30;99.90;;;;;;5053560;28;20136;-78
2021/10/19 04:59:50;;;;;;;9.77;6.13;;;9.30;99.90;;;;;;5053432;28;20049;-77
2021/10/19 05:02:18;;;;;;;7.88;5.70;;;9.30;99.90;;;;;;5053519;28;20478;-76
2021/10/19 05:04:46;;;;;;;9.73;5.95;;;9.30;99.90;;;;;;5053388;28;20136;-76
2021/10/19 05:07:13;;;;;;;8.35;5.50;;;9.40;99.90;;;;;;5053513;28;20144;-75
2021/10/19 05:09:40;;;;;;;8.60;5.90;;;9.40;99.90;;;;;;5053649;28;20131;-77
2021/10/19 05:12:07;;;;;;;7.97;5.20;;;9.40;99.90;;;;;;5053414;28;20160;-77
2021/10/19 05:14:34;;;;;;;8.05;5.28;;;9.50;99.90;;;;;;5053333;28;20128;-77
2021/10/19 05:17:02;;;;;;;9.10;6.00;;;9.60;99.90;;;;;;5053645;28;20451;-75
2021/10/19 05:19:31;;;;;;;8.30;5.53;;;9.60;99.90;;;;;;5053154;28;20136;-78
2021/10/19 05:21:58;;;;;;;7.68;4.90;;;9.60;99.90;;;;;;5053169;28;20132;-76
2021/10/19 05:24:25;;;;;;;9.27;5.38;;;9.60;99.90;;;;;;5063365;28;20593;-79
2021/10/19 05:26:52;;;;;;;7.70;5.38;;;9.70;99.90;;;;;;5073311;28;20474;-77
2021/10/19 05:29:19;;;;;;;8.55;5.18;;;9.70;99.90;;;;;;5072958;28;20143;-79
2021/10/19 05:31:46;;;;;;;7.93;5.22;;;9.70;99.90;;;;;;5073034;28;20056;-77
2021/10/19 05:34:14;;;;;;;8.63;5.72;;;9.70;99.90;;;;;;5072382;28;20143;-79
2021/10/19 05:36:42;;;;;;;8.02;5.50;;;9.70;99.90;;;;;;5072682;28;20135;-76
2021/10/19 05:39:09;;;;;;;8.90;5.97;;;9.70;99.90;;;;;;5072805;28;20474;-76
2021/10/19 05:41:36;;;;;;;9.88;6.03;;;9.80;99.90;;;;;;5072875;28;20135;-76
2021/10/19 05:44:04;;;;;;;9.43;5.65;;;9.70;99.90;;;;;;5076975;28;20080;-78
2021/10/19 05:46:31;;;;;;;9.10;5.60;;;9.80;99.90;;;;;;5072740;28;20135;-78
2021/10/19 05:48:58;;;;;;;8.40;5.50;;;9.70;99.90;;;;;;5072785;28;20084;-78
2021/10/19 05:51:25;;;;;;;9.05;5.70;;;9.80;99.90;;;;;;5072683;28;20127;-78
2021/10/19 05:53:54;;;;;;;9.18;5.25;;;9.70;99.90;;;;;;5072608;28;20143;-77
2021/10/19 05:56:21;;;;;;;9.32;5.95;;;9.70;99.90;;;;;;5072507;28;20465;-76
2021/10/19 05:58:48;;;;;;;8.13;5.85;;;9.70;99.90;;;;;;5072636;28;20105;-77
2021/10/19 06:01:15;;;;;;;8.57;5.53;;;9.80;99.90;;;;;;5072824;28;20135;-78
2021/10/19 06:03:42;;;;;;;8.80;5.15;;;9.80;99.90;;;;;;5072473;28;20076;-78
2021/10/19 06:06:13;;;;;;;7.35;5.03;;;9.80;99.90;;;;;;5072263;28;20128;-77
2021/10/19 06:08:40;;;;;;;9.68;5.22;;;9.80;99.90;;;;;;5072242;28;20084;-78
2021/10/19 06:11:09;;;;;;;7.95;5.25;;;9.90;99.90;;;;;;5072065;28;20086;-78
2021/10/19 06:13:36;;;;;;;9.65;5.50;;;9.90;99.90;;;;;;5072355;28;20677;-79
2021/10/19 06:16:05;;;;;;;8.95;5.05;;;9.90;99.90;;;;;;5072306;28;20109;-77
2021/10/19 06:18:32;;;;;;;9.25;5.40;;;9.90;99.90;;;;;;5072318;28;20127;-76
2021/10/19 06:20:59;;;;;;;8.40;5.43;;;10.00;99.90;;;;;;5072172;28;20123;-77
2021/10/19 06:23:26;;;;;;;11.38;6.00;;;10.00;99.90;;;;;;5071863;28;20135;-77
2021/10/19 06:25:53;;;;;;;10.80;6.50;;;10.00;99.90;;;;;;5072263;28;20140;-78
2021/10/19 06:28:22;;;;;;;9.40;6.03;;;10.00;99.90;;;;;;5072204;28;20126;-77
2021/10/19 06:30:49;;;;;;;8.52;5.68;;;10.00;99.90;;;;;;5072558;28;20131;-76
2021/10/19 06:33:16;;;;;;;9.57;5.53;;;10.00;99.90;;;;;;5072451;28;20152;-77
2021/10/19 06:35:43;;;;;;;7.18;4.90;;;10.10;99.90;;;;;;5072748;28;20140;-76
2021/10/19 06:38:11;;;;;;;7.57;4.75;;;10.10;99.90;;;;;;5072829;28;20143;-78
2021/10/19 06:40:38;;;;;;;7.18;4.22;;;10.10;99.90;;;;;;5072002;28;20135;-76
2021/10/19 06:43:05;;;;;;;6.72;4.30;;;10.10;99.90;;;;;;5071985;28;20144;-77
2021/10/19 06:45:34;;;;;;;8.95;4.90;;;10.20;99.90;;;;;;5071069;28;20052;-77
2021/10/19 06:48:01;;;;;;;7.53;4.75;;;10.20;99.90;;;;;;5071800;28;20142;-77
2021/10/19 06:50:28;;;;;;;8.27;6.03;;;10.30;99.90;;;;;;5071598;28;20588;-76
2021/10/19 06:52:55;;;;;;;9.30;5.55;;;10.30;99.90;;;;;;5072036;28;20091;-79
2021/10/19 06:55:23;;;;;;;8.65;5.60;;;10.30;99.90;;;;;;5061995;28;20133;-78
2021/10/19 06:57:50;;;;;;;10.63;5.40;;;10.30;99.90;;;;;;5031820;28;20064;-77
2021/10/19 07:00:18;;;;;;;8.15;5.55;;;10.30;99.90;;;;;;5031741;28;20132;-79
2021/10/19 07:02:47;;;;;;;8.95;5.53;;;10.40;99.90;;;;;;5031696;28;20125;-78
2021/10/19 07:05:14;;;;;;;8.00;5.25;;;10.40;99.90;;;;;;5031608;28;20124;-78
2021/10/19 07:07:42;;;;;;;7.88;5.20;;;10.40;99.90;;;;;;5031488;28;20140;-77
2021/10/19 07:10:11;;;;;;;8.27;5.60;;;10.50;99.90;;;;;;5031737;28;20136;-76
2021/10/19 07:12:39;;;;;;;9.00;5.53;;;10.50;99.90;;;;;;5031559;28;20136;-77
2021/10/19 07:15:09;;;;;;;9.18;5.60;;;10.60;99.90;;;;;;5031635;28;20099;-77
2021/10/19 07:17:37;;;;;;;7.72;5.63;;;10.50;99.90;;;;;;5031554;28;20095;-79
2021/10/19 07:20:08;;;;;;;9.82;5.90;;;10.60;99.90;;;;;;5031557;28;20156;-79
2021/10/19 07:22:35;;;;;;;7.45;5.18;;;10.60;99.90;;;;;;5031598;28;20617;-77
2021/10/19 07:25:03;;;;;;;10.02;5.13;;;10.70;99.90;;;;;;5031475;28;20470;-78
2021/10/19 07:27:31;;;;;;;7.82;5.20;;;10.70;99.90;;;;;;5031673;28;20472;-78
2021/10/19 07:29:58;;;;;;;8.10;5.18;;;10.70;99.90;;;;;;5033054;28;20092;-78
2021/10/19 07:32:25;;;;;;;8.30;5.50;;;10.70;99.90;;;;;;5033099;28;20248;-77
2021/10/19 07:34:52;;;;;;;9.88;5.78;;;10.70;99.90;;;;;;5031978;28;20140;-77
2021/10/19 07:37:22;;;;;;;8.55;5.38;;;10.80;99.90;;;;;;5031855;28;20137;-77
2021/10/19 07:39:49;;;;;;;8.48;5.20;;;10.80;99.90;;;;;;5031349;28;20573;-78
2021/10/19 07:42:16;;;;;;;8.43;5.75;;;10.80;99.90;;;;;;5031488;28;20136;-78
2021/10/19 07:44:43;;;;;;;10.45;5.32;;;10.80;99.90;;;;;;5031378;28;20081;-78
2021/10/19 07:47:10;;;;;;;8.05;5.65;;;10.80;99.90;;;;;;5031555;28;20057;-76
2021/10/19 07:49:37;;;;;;;8.77;5.53;;;10.90;99.90;;;;;;5031558;28;20140;-75
2021/10/19 07:52:05;;;;;;;8.63;5.40;;;10.90;99.90;;;;;;5031391;28;20140;-77
2021/10/19 07:54:34;;;;;;;9.57;5.45;;;11.00;99.90;;;;;;5031322;28;20052;-81
2021/10/19 07:57:01;;;;;;;9.13;5.93;;;11.00;99.90;;;;;;5033736;28;20050;-78
2021/10/19 07:59:28;;;;;;;8.48;5.60;;;11.00;99.90;;;;;;5033990;28;20080;-79
2021/10/19 08:01:55;;;;;;;8.45;5.20;;;11.10;99.90;;;;;;5034757;28;20111;-77
2021/10/19 08:04:22;;;;;;;7.70;4.82;;;11.10;99.90;;;;;;5034805;28;20088;-75
2021/10/19 08:06:49;;;;;;;7.50;5.07;;;11.10;99.90;;;;;;5034498;28;20574;-78
2021/10/19 08:09:16;;;;;;;8.25;4.97;;;11.20;99.90;;;;;;5034502;28;20085;-78
2021/10/19 08:11:45;;;;;;;9.82;5.57;;;11.20;99.90;;;;;;5034484;28;20061;-78
2021/10/19 08:14:12;;;;;;;8.38;5.40;;;11.20;99.90;;;;;;5034902;28;20051;-77
2021/10/19 08:16:40;;;;;;;7.43;4.75;;;11.20;99.90;;;;;;5034476;28;20049;-77
2021/10/19 08:19:07;;;;;;;8.30;5.15;;;11.20;99.90;;;;;;5034420;28;20069;-77
2021/10/19 08:21:34;;;;;;;8.80;5.28;;;11.20;99.90;;;;;;5034246;28;20577;-75
2021/10/19 08:24:02;;;;;;;10.05;5.80;;;11.30;99.90;;;;;;5034272;28;20128;-77
2021/10/19 08:26:30;;;;;;;10.15;5.93;;;11.30;99.90;;;;;;5034167;28;20080;-78
2021/10/19 08:29:00;;;;;;;7.43;5.03;;;11.30;99.90;;;;;;5034414;28;20089;-77
2021/10/19 08:31:27;;;;;;;9.77;6.38;;;11.30;99.90;;;;;;5034304;28;20096;-76
2021/10/19 08:33:54;;;;;;;8.25;5.38;;;11.30;99.90;;;;;;5034164;28;20078;-77
2021/10/19 08:36:23;;;;;;;7.97;5.25;;;11.30;99.90;;;;;;5034237;28;20107;-77
2021/10/19 08:38:51;;;;;;;8.13;4.85;;;11.30;99.90;;;;;;5034127;28;20591;-76
2021/10/19 08:41:19;;;;;;;7.57;4.68;;;11.40;99.90;;;;;;5034234;28;20132;-77
2021/10/19 08:43:48;;;;;;;7.57;4.72;;;11.40;99.90;;;;;;5033998;28;20559;-77
2021/10/19 08:46:18;;;;;;;6.50;4.47;;;11.50;99.90;;;;;;5034150;28;20050;-78
2021/10/19 08:48:45;;;;;;;10.13;6.13;;;11.60;99.90;;;;;;5033927;28;20045;-77
2021/10/19 08:51:13;;;;;;;7.90;5.10;;;11.70;99.90;;;;;;5033732;28;20136;-79
2021/10/19 08:53:42;;;;;;;7.35;4.88;;;11.70;99.90;;;;;;5034092;28;20144;-77
2021/10/19 08:56:10;;;;;;;6.85;4.68;;;11.80;99.90;;;;;;5033728;28;20132;-75
2021/10/19 08:58:38;;;;;;;6.78;5.00;;;11.90;99.90;;;;;;5033621;28;20486;-77
2021/10/19 09:01:06;;;;;;;7.53;5.20;;;12.00;99.90;;;;;;5033597;28;20045;-78
2021/10/19 09:03:36;;;;;;;7.03;4.78;;;12.00;99.90;;;;;;5033677;28;20495;-78
2021/10/19 09:06:03;;;;;;;7.63;5.00;;;12.10;99.90;;;;;;5033365;28;20140;-78
2021/10/19 09:08:30;;;;;;;7.60;4.40;;;12.20;99.90;;;;;;5032893;28;20087;-79
2021/10/19 09:10:57;;;;;;;6.80;5.05;;;12.20;99.90;;;;;;5033777;28;20053;-78
2021/10/19 09:13:24;;;;;;;8.40;5.30;;;12.30;99.90;;;;;;5033727;28;20124;-80
2021/10/19 09:15:52;;;;;;;7.45;4.85;;;12.40;99.90;;;;;;5051274;28;20443;-77
2021/10/19 09:18:21;;;;;;;7.50;5.30;;;12.40;99.90;;;;;;5050113;28;20059;-79
2021/10/19 09:20:53;;;;;;;8.27;5.43;;;12.50;99.90;;;;;;5050608;28;20053;-78
2021/10/19 09:23:24;;;;;;;8.85;5.43;;;12.50;99.90;;;;;;5050224;28;20049;-78
2021/10/19 09:25:53;;;;;;;7.63;5.22;;;12.60;99.90;;;;;;5050149;28;20069;-78
2021/10/19 09:28:34;;;;;;;8.23;5.13;;;12.60;99.90;;;;;;5049443;28;20145;-78
2021/10/19 09:31:01;;;;;;;8.50;5.43;;;12.60;99.90;;;;;;5049646;28;20114;-77
2021/10/19 09:33:29;;;;;;;10.73;6.63;;;12.70;99.90;;;;;;5049882;28;20411;-77
2021/10/19 09:35:59;;;;;;;9.45;6.28;;;12.70;99.90;;;;;;5049644;28;20136;-77
2021/10/19 09:38:27;;;;;;;8.88;5.43;;;12.70;99.90;;;;;;5049883;28;20052;-76
2021/10/19 09:40:57;;;;;;;7.40;5.45;;;12.70;99.90;;;;;;5049049;28;20538;-75
2021/10/19 09:43:26;;;;;;;7.72;5.63;;;12.70;99.90;;;;;;5049693;28;20119;-80
2021/10/19 09:45:56;;;;;;;7.90;5.03;;;12.70;99.90;;;;;;5049822;28;20633;-78
2021/10/19 09:48:27;;;;;;;8.05;4.82;;;12.70;99.90;;;;;;5049545;28;20056;-78
2021/10/19 09:50:57;;;;;;;7.28;4.70;;;12.70;99.90;;;;;;5049621;28;20084;-78
2021/10/19 09:53:26;;;;;;;7.28;4.47;;;12.70;99.90;;;;;;5049271;28;20057;-81
2021/10/19 09:55:55;;;;;;;7.28;4.85;;;12.70;99.90;;;;;;5050677;28;20076;-78
2021/10/19 09:58:24;;;;;;;6.75;4.05;;;12.70;99.90;;;;;;5049950;28;20140;-78
2021/10/19 10:00:52;;;;;;;5.93;3.88;;;12.80;99.90;;;;;;5049659;28;20486;-79
2021/10/19 10:03:19;;;;;;;5.60;3.20;;;12.80;99.90;;;;;;5049438;28;20099;-78
2021/10/19 10:05:47;;;;;;;5.40;3.42;;;12.80;99.90;;;;;;5049658;28;20556;-75
2021/10/19 10:08:20;;;;;;;6.47;3.40;;;12.90;99.90;;;;;;5048110;28;20049;-79
2021/10/19 10:10:52;;;;;;;5.28;3.28;;;13.00;99.90;;;;;;5048483;28;20140;-77
2021/10/19 10:13:19;;;;;;;5.00;2.83;;;13.10;99.90;;;;;;5047699;28;20151;-76
2021/10/19 10:15:46;;;;;;;5.28;2.53;;;13.10;99.90;;;;;;5047210;28;20055;-77
2021/10/19 10:18:14;;;;;;;6.22;2.75;;;13.20;99.90;;;;;;5048930;28;20049;-77
2021/10/19 10:20:43;;;;;;;4.75;2.50;;;13.30;99.90;;;;;;5048390;28;20132;-76
2021/10/19 10:23:23;;;;;;;4.75;2.33;;;13.30;99.90;;;;;;5048625;28;20242;-75
2021/10/19 10:25:53;;;;;;;3.97;2.10;;;13.40;99.90;;;;;;5048909;28;20059;-76
2021/10/19 10:28:27;;;;;;;3.92;2.28;;;13.50;99.90;;;;;;5048274;28;20103;-75
2021/10/19 10:30:55;;;;;;;4.10;2.08;;;13.50;99.90;;;;;;5047661;28;20106;-76
2021/10/19 10:33:33;;;;;;;3.90;2.10;;;13.60;99.90;;;;;;5048192;28;20048;-77
2021/10/19 10:36:05;;;;;;;3.53;1.92;;;13.70;99.90;;;;;;5049138;28;20135;-76
2021/10/19 10:38:34;;;;;;;4.07;1.88;;;13.80;99.90;;;;;;5048713;28;20422;-76
2021/10/19 10:41:14;;;;;;;3.75;1.80;;;14.00;99.90;;;;;;5048708;28;20080;-75
2021/10/19 10:43:41;;;;;;;3.30;1.80;;;14.10;99.90;;;;;;5048054;28;20091;-73
2021/10/19 10:46:12;;;;;;;3.25;1.73;;;14.20;99.90;;;;;;5047969;28;20137;-76
2021/10/19 10:48:40;;;;;;;3.92;1.60;;;14.30;99.90;;;;;;5048569;28;20415;-75
2021/10/19 10:51:10;;;;;;;3.40;1.60;;;14.40;99.90;;;;;;5048479;28;20139;-77
2021/10/19 10:53:41;;;;;;;3.20;1.63;;;14.50;99.90;;;;;;5048820;28;20182;-76
2021/10/19 10:56:11;;;;;;;4.10;1.42;;;14.60;99.90;;;;;;5048371;28;20044;-78
2021/10/19 10:58:41;;;;;;;3.10;1.40;;;14.70;99.90;;;;;;5048027;28;20076;-73
2021/10/19 11:01:16;;;;;;;2.67;1.33;;;14.80;99.90;;;;;;5051588;28;20566;-79
2021/10/19 11:03:44;;;;;;;3.45;1.60;;;14.90;99.90;;;;;;5048310;28;20128;-79
2021/10/19 11:06:14;;;;;;;3.45;1.50;;;15.00;99.90;;;;;;5048297;28;20137;-79
2021/10/19 11:08:45;;;;;;;2.80;1.40;;;15.00;99.90;;;;;;5047678;28;20072;-79
2021/10/19 11:11:16;;;;;;;2.85;1.33;;;15.10;99.90;;;;;;5048532;28;20052;-79
2021/10/19 11:13:54;;;;;;;3.03;1.33;;;15.20;99.90;;;;;;5047565;28;20136;-79
2021/10/19 11:16:30;;;;;;;2.63;1.30;;;15.20;99.90;;;;;;5048768;28;20091;-79
2021/10/19 11:18:59;;;;;;;2.38;1.08;;;15.30;99.90;;;;;;5046997;28;20402;-79
2021/10/19 11:21:26;;;;;;;3.08;1.30;;;15.30;99.90;;;;;;5047103;28;20135;-75
2021/10/19 11:23:56;;;;;;;2.75;1.25;;;15.40;99.90;;;;;;5048430;28;20154;-76
2021/10/19 11:26:23;;;;;;;2.70;1.23;;;15.50;99.90;;;;;;5048127;28;20053;-75
2021/10/19 11:28:51;;;;;;;3.13;1.30;;;15.60;99.90;;;;;;5048115;28;20045;-75
2021/10/19 11:31:18;;;;;;;2.80;1.40;;;15.70;99.90;;;;;;5049819;28;20144;-76
2021/10/19 11:33:47;;;;;;;3.33;1.27;;;15.70;99.90;;;;;;5052201;28;20119;-75
2021/10/19 11:36:15;;;;;;;2.63;1.23;;;15.80;99.90;;;;;;5052288;28;20128;-78
2021/10/19 11:38:43;;;;;;;2.55;1.20;;;15.90;99.80;;;;;;5051995;28;20554;-79
2021/10/19 11:41:15;;;;;;;3.10;1.30;;;15.90;99.60;;;;;;5051866;28;20049;-73
2021/10/19 11:43:43;;;;;;;2.60;1.27;;;16.00;99.60;;;;;;5052518;28;20133;-79
2021/10/19 11:46:15;;;;;;;2.75;1.10;;;16.10;99.50;;;;;;5063004;28;20596;-80
2021/10/19 11:48:43;;;;;;;3.85;1.30;;;16.10;99.20;;;;;;5070379;28;20087;-80
2021/10/19 11:51:14;;;;;;;3.03;1.30;;;16.20;99.00;;;;;;5071099;28;20136;-78
2021/10/19 11:53:43;;;;;;;2.72;1.30;;;16.20;99.00;;;;;;5071767;28;20119;-78
2021/10/19 11:56:13;;;;;;;2.53;1.10;;;16.10;98.80;;;;;;5071499;28;20056;-79
2021/10/19 11:58:52;;;;;;;2.30;1.10;;;16.20;98.50;;;;;;5071721;28;20157;-80
2021/10/19 12:01:20;;;;;;;2.85;1.30;;;16.20;98.30;;;;;;5051694;28;20266;-78
2021/10/19 12:03:57;;;;;;;2.95;1.23;;;16.10;98.20;;;;;;5051663;28;20053;-79
2021/10/19 12:06:26;;;;;;;3.47;1.30;;;16.20;98.10;;;;;;5051860;28;20143;-79
2021/10/19 12:08:54;;;;;;;2.67;1.10;;;16.20;98.20;;;;;;5051477;28;20133;-80
2021/10/19 12:11:27;;;;;;;3.13;1.30;;;16.20;98.20;;;;;;5050735;28;20132;-78
2021/10/19 12:13:57;;;;;;;2.60;1.30;;;16.20;98.00;;;;;;5050853;28;20052;-80
2021/10/19 12:16:30;;;;;;;2.63;1.10;;;16.30;98.00;;;;;;5050806;28;20402;-76
2021/10/19 12:18:59;;;;;;;2.35;1.20;;;16.30;97.70;;;;;;5050943;28;20049;-79
2021/10/19 12:21:28;;;;;;;2.90;1.20;;;16.40;97.60;;;;;;5050979;28;20160;-78
2021/10/19 12:23:59;;;;;;;3.20;1.30;;;16.30;97.60;;;;;;5051838;28;20137;-80
2021/10/19 12:26:31;;;;;;;2.80;1.20;;;16.40;97.40;;;;;;5051631;28;20136;-80
2021/10/19 12:29:05;;;;;;;2.67;1.35;;;16.30;97.30;;;;;;5051645;28;20052;-79
2021/10/19 12:31:33;;;;;;;3.37;1.50;;;16.40;97.50;;;;;;5050821;28;20128;-80
2021/10/19 12:34:04;;;;;;;3.58;1.42;;;16.30;97.50;;;;;;5051703;28;20084;-80
2021/10/19 12:36:35;;;;;;;3.08;1.50;;;16.30;97.70;;;;;;5051165;28;20107;-79
2021/10/19 12:39:12;;;;;;;3.13;1.40;;;16.20;97.90;;;;;;5051528;28;20057;-80
2021/10/19 12:41:43;;;;;;;3.58;1.60;;;16.20;98.30;;;;;;5050924;28;20522;-79
2021/10/19 12:44:13;;;;;;;4.15;1.85;;;16.20;98.50;;;;;;5050315;28;20502;-78
2021/10/19 12:46:40;;;;;;;3.53;1.70;;;16.20;98.70;;;;;;5054485;28;20147;-78
2021/10/19 12:49:08;;;;;;;3.75;1.83;;;16.20;98.90;;;;;;5053531;28;20049;-80
2021/10/19 12:51:36;;;;;;;3.50;1.77;;;16.10;98.90;;;;;;5051219;28;20144;-80
2021/10/19 12:54:05;;;;;;;4.00;1.80;;;16.10;98.80;;;;;;5050786;28;20127;-78